sensor_id;sensor_type;location;lat;lon;timestamp;temperature;humidity
29939;DHT22;16799;50.844;5.304;2023-09-19T00:00:43;15.30;99.90
29939;DHT22;16799;50.844;5.304;2023-09-19T00:03:10;15.20;99.90
29939;DHT22;16799;50.844;5.304;2023-09-19T00:05:38;15.20;99.90
29939;DHT22;16799;50.844;5.304;2023-09-19T00:08:04;15.20;99.90
29939;DHT22;16799;50.844;5.304;2023-09-19T00:10:31;15.10;99.90
29939;DHT22;16799;50.844;5.304;2023-09-19T00:12:59;15.10;99.90
29939;DHT22;16799;50.844;5.304;2023-09-19T00:15:27;15.10;99.90
29939;DHT22;16799;50.844;5.304;2023-09-19T00:17:56;15.10;99.90
29939;DHT22;16799;50.844;5.304;2023-09-19T00:20:22;15.10;99.90
29939;DHT22;16799;50.844;5.304;2023-09-19T00:22:51;15.10;99.90
29939;DHT22;16799;50.844;5.304;2023-09-19T00:25:17;15.10;99.90
29939;DHT22;16799;50.844;5.304;2023-09-19T00:27:43;15.10;99.90
29939;DHT22;16799;50.844;5.304;2023-09-19T00:30:11;15.10;99.90
29939;DHT22;16799;50.844;5.304;2023-09-19T00:32:42;15.10;99.90
29939;DHT22;16799;50.844;5.304;2023-09-19T00:35:08;15.10;99.90
29939;DHT22;16799;50.844;5.304;2023-09-19T00:37:38;15.10;99.90
29939;DHT22;16799;50.844;5.304;2023-09-19T00:40:06;15.10;99.90
29939;DHT22;16799;50.844;5.304;2023-09-19T00:42:34;15.10;99.90
29939;DHT22;16799;50.844;5.304;2023-09-19T00:45:00;15.10;99.90
29939;DHT22;16799;50.844;5.304;2023-09-19T00:47:29;15.10;99.90
29939;DHT22;16799;50.844;5.304;2023-09-19T00:49:55;15.10;99.90
29939;DHT22;16799;50.844;5.304;2023-09-19T00:52:21;15.20;99.90
29939;DHT22;16799;50.844;5.304;2023-09-19T00:54:49;15.10;99.90
29939;DHT22;16799;50.844;5.304;2023-09-19T00:57:15;15.20;99.90
29939;DHT22;16799;50.844;5.304;2023-09-19T00:59:44;15.20;99.90
29939;DHT22;16799;50.844;5.304;2023-09-19T01:02:10;15.10;99.90
29939;DHT22;16799;50.844;5.304;2023-09-19T01:04:40;15.10;99.90
29939;DHT22;16799;50.844;5.304;2023-09-19T01:07:06;15.10;99.90
29939;DHT22;16799;50.844;5.304;2023-09-19T01:09:34;15.10;99.90
29939;DHT22;16799;50.844;5.304;2023-09-19T01:12:02;15.00;99.90
29939;DHT22;16799;50.844;5.304;2023-09-19T01:14:44;15.00;99.90
29939;DHT22;16799;50.844;5.304;2023-09-19T01:20:38;15.00;99.90
29939;DHT22;16799;50.844;5.304;2023-09-19T01:30:51;15.00;99.90
29939;DHT22;16799;50.844;5.304;2023-09-19T01:33:19;15.00;99.90
29939;DHT22;16799;50.844;5.304;2023-09-19T01:35:45;15.00;99.90
29939;DHT22;16799;50.844;5.304;2023-09-19T01:38:11;15.00;99.90
29939;DHT22;16799;50.844;5.304;2023-09-19T01:40:44;15.00;99.90
29939;DHT22;16799;50.844;5.304;2023-09-19T01:43:27;15.00;99.90
29939;DHT22;16799;50.844;5.304;2023-09-19T01:46:12;15.00;99.90
29939;DHT22;16799;50.844;5.304;2023-09-19T01:54:12;14.80;99.90
29939;DHT22;16799;50.844;5.304;2023-09-19T01:57:00;14.80;99.90
29939;DHT22;16799;50.844;5.304;2023-09-19T01:59:43;14.80;99.90
29939;DHT22;16799;50.844;5.304;2023-09-19T02:02:10;14.70;99.90
29939;DHT22;16799;50.844;5.304;2023-09-19T02:04:36;14.70;99.90
29939;DHT22;16799;50.844;5.304;2023-09-19T02:07:02;14.70;99.90
29939;DHT22;16799;50.844;5.304;2023-09-19T02:09:31;14.70;99.90
29939;DHT22;16799;50.844;5.304;2023-09-19T02:11:56;14.70;99.90
29939;DHT22;16799;50.844;5.304;2023-09-19T02:14:22;14.70;99.90
29939;DHT22;16799;50.844;5.304;2023-09-19T02:16:48;14.70;99.90
29939;DHT22;16799;50.844;5.304;2023-09-19T02:19:15;14.70;99.90
29939;DHT22;16799;50.844;5.304;2023-09-19T02:21:40;14.70;99.90
29939;DHT22;16799;50.844;5.304;2023-09-19T02:24:06;14.60;99.90
29939;DHT22;16799;50.844;5.304;2023-09-19T02:26:33;14.60;99.90
29939;DHT22;16799;50.844;5.304;2023-09-19T02:29:02;14.60;99.90
29939;DHT22;16799;50.844;5.304;2023-09-19T02:31:30;14.50;99.90
29939;DHT22;16799;50.844;5.304;2023-09-19T02:33:56;14.40;99.90
29939;DHT22;16799;50.844;5.304;2023-09-19T02:36:22;14.40;99.90
29939;DHT22;16799;50.844;5.304;2023-09-19T02:38:49;14.50;99.90
29939;DHT22;16799;50.844;5.304;2023-09-19T02:41:15;14.40;99.90
29939;DHT22;16799;50.844;5.304;2023-09-19T02:43:40;14.30;99.90
29939;DHT22;16799;50.844;5.304;2023-09-19T02:46:08;14.30;99.90
29939;DHT22;16799;50.844;5.304;2023-09-19T02:48:34;14.30;99.90
29939;DHT22;16799;50.844;5.304;2023-09-19T02:51:01;14.20;99.90
29939;DHT22;16799;50.844;5.304;2023-09-19T02:53:28;14.20;99.90
29939;DHT22;16799;50.844;5.304;2023-09-19T02:55:56;14.30;99.90
29939;DHT22;16799;50.844;5.304;2023-09-19T02:58:22;14.30;99.90
29939;DHT22;16799;50.844;5.304;2023-09-19T03:00:49;14.40;99.90
29939;DHT22;16799;50.844;5.304;2023-09-19T03:03:15;14.40;99.90
29939;DHT22;16799;50.844;5.304;2023-09-19T03:05:42;14.40;99.90
29939;DHT22;16799;50.844;5.304;2023-09-19T03:08:12;14.40;99.90
29939;DHT22;16799;50.844;5.304;2023-09-19T03:10:40;14.40;99.90
29939;DHT22;16799;50.844;5.304;2023-09-19T03:13:06;14.30;99.90
29939;DHT22;16799;50.844;5.304;2023-09-19T03:15:35;14.20;99.90
29939;DHT22;16799;50.844;5.304;2023-09-19T03:18:04;14.20;99.90
29939;DHT22;16799;50.844;5.304;2023-09-19T03:20:30;14.10;99.90
29939;DHT22;16799;50.844;5.304;2023-09-19T03:22:55;14.00;99.90
29939;DHT22;16799;50.844;5.304;2023-09-19T03:25:22;14.10;99.90
29939;DHT22;16799;50.844;5.304;2023-09-19T03:27:48;14.10;99.90
29939;DHT22;16799;50.844;5.304;2023-09-19T03:30:14;14.10;99.90
29939;DHT22;16799;50.844;5.304;2023-09-19T03:32:46;14.10;99.90
29939;DHT22;16799;50.844;5.304;2023-09-19T03:35:15;14.20;99.90
29939;DHT22;16799;50.844;5.304;2023-09-19T03:37:41;14.20;99.90
29939;DHT22;16799;50.844;5.304;2023-09-19T03:40:09;14.30;99.90
29939;DHT22;16799;50.844;5.304;2023-09-19T03:42:41;14.30;99.90
29939;DHT22;16799;50.844;5.304;2023-09-19T03:45:10;14.30;99.90
29939;DHT22;16799;50.844;5.304;2023-09-19T03:47:38;14.30;99.90
29939;DHT22;16799;50.844;5.304;2023-09-19T03:50:05;14.30;99.90
29939;DHT22;16799;50.844;5.304;2023-09-19T03:52:31;14.40;99.90
29939;DHT22;16799;50.844;5.304;2023-09-19T03:54:56;14.40;99.90
29939;DHT22;16799;50.844;5.304;2023-09-19T03:57:22;14.40;99.90
29939;DHT22;16799;50.844;5.304;2023-09-19T03:59:48;14.50;99.90
29939;DHT22;16799;50.844;5.304;2023-09-19T04:02:13;14.50;99.90
29939;DHT22;16799;50.844;5.304;2023-09-19T04:04:48;14.60;99.90
29939;DHT22;16799;50.844;5.304;2023-09-19T04:07:14;14.70;99.90
29939;DHT22;16799;50.844;5.304;2023-09-19T04:09:39;14.70;99.90
29939;DHT22;16799;50.844;5.304;2023-09-19T04:12:05;14.70;99.90
29939;DHT22;16799;50.844;5.304;2023-09-19T04:14:31;14.80;99.90
29939;DHT22;16799;50.844;5.304;2023-09-19T04:16:56;14.70;99.90
29939;DHT22;16799;50.844;5.304;2023-09-19T04:19:22;14.70;99.90
29939;DHT22;16799;50.844;5.304;2023-09-19T04:21:48;14.60;99.90
29939;DHT22;16799;50.844;5.304;2023-09-19T04:24:13;14.60;99.90
29939;DHT22;16799;50.844;5.304;2023-09-19T04:26:39;14.70;99.90
29939;DHT22;16799;50.844;5.304;2023-09-19T04:29:05;14.60;99.90
29939;DHT22;16799;50.844;5.304;2023-09-19T04:31:31;14.60;99.90
29939;DHT22;16799;50.844;5.304;2023-09-19T04:33:57;14.60;99.90
29939;DHT22;16799;50.844;5.304;2023-09-19T04:36:24;14.60;99.90
29939;DHT22;16799;50.844;5.304;2023-09-19T04:38:50;14.50;99.90
29939;DHT22;16799;50.844;5.304;2023-09-19T04:41:16;14.60;99.90
29939;DHT22;16799;50.844;5.304;2023-09-19T04:43:41;14.60;99.90
29939;DHT22;16799;50.844;5.304;2023-09-19T04:46:07;14.60;99.90
29939;DHT22;16799;50.844;5.304;2023-09-19T04:48:33;14.60;99.90
29939;DHT22;16799;50.844;5.304;2023-09-19T04:51:00;14.50;99.90
29939;DHT22;16799;50.844;5.304;2023-09-19T04:53:26;14.40;99.90
29939;DHT22;16799;50.844;5.304;2023-09-19T04:55:53;14.30;99.90
29939;DHT22;16799;50.844;5.304;2023-09-19T04:58:21;14.30;99.90
29939;DHT22;16799;50.844;5.304;2023-09-19T05:00:47;14.30;99.90
29939;DHT22;16799;50.844;5.304;2023-09-19T05:03:14;14.20;99.90
29939;DHT22;16799;50.844;5.304;2023-09-19T05:05:39;14.30;99.90
29939;DHT22;16799;50.844;5.304;2023-09-19T05:08:06;14.20;99.90
29939;DHT22;16799;50.844;5.304;2023-09-19T05:10:34;14.10;99.90
29939;DHT22;16799;50.844;5.304;2023-09-19T05:13:04;14.10;99.90
29939;DHT22;16799;50.844;5.304;2023-09-19T05:15:30;14.10;99.90
29939;DHT22;16799;50.844;5.304;2023-09-19T05:17:56;14.00;99.90
29939;DHT22;16799;50.844;5.304;2023-09-19T05:20:22;14.10;99.90
29939;DHT22;16799;50.844;5.304;2023-09-19T05:25:24;14.00;99.90
29939;DHT22;16799;50.844;5.304;2023-09-19T05:27:53;14.00;99.90
29939;DHT22;16799;50.844;5.304;2023-09-19T05:30:19;14.10;99.90
29939;DHT22;16799;50.844;5.304;2023-09-19T05:32:45;14.10;99.90
29939;DHT22;16799;50.844;5.304;2023-09-19T05:35:11;14.10;99.90
29939;DHT22;16799;50.844;5.304;2023-09-19T05:37:38;14.10;99.90
29939;DHT22;16799;50.844;5.304;2023-09-19T05:40:05;14.10;99.90
29939;DHT22;16799;50.844;5.304;2023-09-19T05:42:38;14.10;99.90
29939;DHT22;16799;50.844;5.304;2023-09-19T05:45:05;14.10;99.90
29939;DHT22;16799;50.844;5.304;2023-09-19T05:47:32;14.00;99.90
29939;DHT22;16799;50.844;5.304;2023-09-19T05:49:57;14.00;99.90
29939;DHT22;16799;50.844;5.304;2023-09-19T05:52:24;14.10;99.90
29939;DHT22;16799;50.844;5.304;2023-09-19T05:54:50;14.10;99.90
29939;DHT22;16799;50.844;5.304;2023-09-19T05:57:16;14.10;99.90
29939;DHT22;16799;50.844;5.304;2023-09-19T05:59:42;14.10;99.90
29939;DHT22;16799;50.844;5.304;2023-09-19T06:02:08;14.10;99.90
29939;DHT22;16799;50.844;5.304;2023-09-19T06:04:35;14.20;99.90
29939;DHT22;16799;50.844;5.304;2023-09-19T06:07:01;14.20;99.90
29939;DHT22;16799;50.844;5.304;2023-09-19T06:09:27;14.20;99.90
29939;DHT22;16799;50.844;5.304;2023-09-19T06:11:53;14.30;99.90
29939;DHT22;16799;50.844;5.304;2023-09-19T06:14:22;14.40;99.90
29939;DHT22;16799;50.844;5.304;2023-09-19T06:16:50;14.30;99.90
29939;DHT22;16799;50.844;5.304;2023-09-19T06:19:15;14.40;99.90
29939;DHT22;16799;50.844;5.304;2023-09-19T06:21:41;14.40;99.90
29939;DHT22;16799;50.844;5.304;2023-09-19T06:24:07;14.40;99.90
29939;DHT22;16799;50.844;5.304;2023-09-19T06:26:33;14.50;99.90
29939;DHT22;16799;50.844;5.304;2023-09-19T06:28:59;14.60;99.90
29939;DHT22;16799;50.844;5.304;2023-09-19T06:31:25;14.60;99.90
29939;DHT22;16799;50.844;5.304;2023-09-19T06:33:52;14.70;99.90
29939;DHT22;16799;50.844;5.304;2023-09-19T06:36:18;14.70;99.90
29939;DHT22;16799;50.844;5.304;2023-09-19T06:38:44;14.70;99.90
29939;DHT22;16799;50.844;5.304;2023-09-19T06:41:10;14.70;99.90
29939;DHT22;16799;50.844;5.304;2023-09-19T06:43:37;14.80;99.90
29939;DHT22;16799;50.844;5.304;2023-09-19T06:46:04;14.90;99.90
29939;DHT22;16799;50.844;5.304;2023-09-19T06:48:32;15.10;99.90
29939;DHT22;16799;50.844;5.304;2023-09-19T06:50:59;15.00;99.90
29939;DHT22;16799;50.844;5.304;2023-09-19T06:53:30;15.00;99.90
29939;DHT22;16799;50.844;5.304;2023-09-19T06:55:57;15.00;99.90
29939;DHT22;16799;50.844;5.304;2023-09-19T06:58:23;15.00;99.90
29939;DHT22;16799;50.844;5.304;2023-09-19T07:00:49;15.10;99.90
29939;DHT22;16799;50.844;5.304;2023-09-19T07:03:15;15.10;99.90
29939;DHT22;16799;50.844;5.304;2023-09-19T07:05:44;15.20;99.90
29939;DHT22;16799;50.844;5.304;2023-09-19T07:08:10;15.30;99.90
29939;DHT22;16799;50.844;5.304;2023-09-19T07:10:38;15.40;99.90
29939;DHT22;16799;50.844;5.304;2023-09-19T07:13:07;15.40;99.90
29939;DHT22;16799;50.844;5.304;2023-09-19T07:15:37;15.50;99.90
29939;DHT22;16799;50.844;5.304;2023-09-19T07:18:12;15.50;99.90
29939;DHT22;16799;50.844;5.304;2023-09-19T07:20:40;15.50;99.90
29939;DHT22;16799;50.844;5.304;2023-09-19T07:23:05;15.60;99.90
29939;DHT22;16799;50.844;5.304;2023-09-19T07:25:31;15.50;99.90
29939;DHT22;16799;50.844;5.304;2023-09-19T07:27:58;15.50;99.90
29939;DHT22;16799;50.844;5.304;2023-09-19T07:30:26;15.50;99.90
29939;DHT22;16799;50.844;5.304;2023-09-19T07:32:52;15.70;99.90
29939;DHT22;16799;50.844;5.304;2023-09-19T07:35:18;15.70;99.90
29939;DHT22;16799;50.844;5.304;2023-09-19T07:37:47;15.80;99.90
29939;DHT22;16799;50.844;5.304;2023-09-19T07:40:17;15.80;99.90
29939;DHT22;16799;50.844;5.304;2023-09-19T07:42:43;15.80;99.90
29939;DHT22;16799;50.844;5.304;2023-09-19T07:45:10;15.90;99.90
29939;DHT22;16799;50.844;5.304;2023-09-19T07:47:43;16.10;99.90
29939;DHT22;16799;50.844;5.304;2023-09-19T07:50:09;16.20;99.90
29939;DHT22;16799;50.844;5.304;2023-09-19T07:52:35;16.20;99.90
29939;DHT22;16799;50.844;5.304;2023-09-19T07:55:00;16.30;99.90
29939;DHT22;16799;50.844;5.304;2023-09-19T07:57:31;16.30;99.90
29939;DHT22;16799;50.844;5.304;2023-09-19T08:00:00;16.40;99.90
29939;DHT22;16799;50.844;5.304;2023-09-19T08:02:25;16.40;99.90
29939;DHT22;16799;50.844;5.304;2023-09-19T08:04:51;16.40;99.90
29939;DHT22;16799;50.844;5.304;2023-09-19T08:07:17;16.60;99.90
29939;DHT22;16799;50.844;5.304;2023-09-19T08:09:44;16.60;99.90
29939;DHT22;16799;50.844;5.304;2023-09-19T08:12:14;16.50;99.90
29939;DHT22;16799;50.844;5.304;2023-09-19T08:14:40;16.60;99.90
29939;DHT22;16799;50.844;5.304;2023-09-19T08:17:09;16.70;99.90
29939;DHT22;16799;50.844;5.304;2023-09-19T08:19:34;16.80;99.90
29939;DHT22;16799;50.844;5.304;2023-09-19T08:22:02;16.90;99.90
29939;DHT22;16799;50.844;5.304;2023-09-19T08:24:29;16.90;99.90
29939;DHT22;16799;50.844;5.304;2023-09-19T08:26:55;16.90;99.90
29939;DHT22;16799;50.844;5.304;2023-09-19T08:29:22;17.00;99.90
29939;DHT22;16799;50.844;5.304;2023-09-19T08:31:58;17.00;99.90
29939;DHT22;16799;50.844;5.304;2023-09-19T08:34:24;17.10;99.90
29939;DHT22;16799;50.844;5.304;2023-09-19T08:36:54;17.20;99.90
29939;DHT22;16799;50.844;5.304;2023-09-19T08:39:23;17.40;99.90
29939;DHT22;16799;50.844;5.304;2023-09-19T08:41:49;17.30;99.90
29939;DHT22;16799;50.844;5.304;2023-09-19T08:44:16;17.30;99.90
29939;DHT22;16799;50.844;5.304;2023-09-19T08:46:43;17.50;99.90
29939;DHT22;16799;50.844;5.304;2023-09-19T08:49:38;17.60;99.90
29939;DHT22;16799;50.844;5.304;2023-09-19T08:52:24;17.90;99.90
29939;DHT22;16799;50.844;5.304;2023-09-19T08:54:52;18.00;99.90
29939;DHT22;16799;50.844;5.304;2023-09-19T08:57:19;17.90;99.90
29939;DHT22;16799;50.844;5.304;2023-09-19T08:59:48;17.90;99.90
29939;DHT22;16799;50.844;5.304;2023-09-19T09:02:16;18.20;99.90
29939;DHT22;16799;50.844;5.304;2023-09-19T09:04:45;18.10;99.90
29939;DHT22;16799;50.844;5.304;2023-09-19T09:07:12;18.20;99.90
29939;DHT22;16799;50.844;5.304;2023-09-19T09:09:42;18.40;99.90
29939;DHT22;16799;50.844;5.304;2023-09-19T09:12:13;18.20;99.90
29939;DHT22;16799;50.844;5.304;2023-09-19T09:14:40;18.00;99.90
29939;DHT22;16799;50.844;5.304;2023-09-19T09:17:07;17.90;99.90
29939;DHT22;16799;50.844;5.304;2023-09-19T09:19:32;18.20;99.90
29939;DHT22;16799;50.844;5.304;2023-09-19T09:22:11;18.20;99.90
29939;DHT22;16799;50.844;5.304;2023-09-19T09:24:37;18.30;99.90
29939;DHT22;16799;50.844;5.304;2023-09-19T09:27:15;18.60;99.90
29939;DHT22;16799;50.844;5.304;2023-09-19T09:29:46;18.70;99.90
29939;DHT22;16799;50.844;5.304;2023-09-19T09:32:32;18.70;99.90
29939;DHT22;16799;50.844;5.304;2023-09-19T09:35:01;18.90;99.90
29939;DHT22;16799;50.844;5.304;2023-09-19T09:37:28;19.00;99.90
29939;DHT22;16799;50.844;5.304;2023-09-19T09:40:02;19.00;99.90
29939;DHT22;16799;50.844;5.304;2023-09-19T09:42:54;18.90;99.90
29939;DHT22;16799;50.844;5.304;2023-09-19T09:45:24;19.10;99.90
29939;DHT22;16799;50.844;5.304;2023-09-19T09:48:00;18.90;99.90
29939;DHT22;16799;50.844;5.304;2023-09-19T09:50:33;18.60;99.90
29939;DHT22;16799;50.844;5.304;2023-09-19T09:53:28;18.80;99.90
29939;DHT22;16799;50.844;5.304;2023-09-19T09:56:07;18.90;99.90
29939;DHT22;16799;50.844;5.304;2023-09-19T09:58:36;19.20;99.90
29939;DHT22;16799;50.844;5.304;2023-09-19T10:01:05;19.40;99.90
29939;DHT22;16799;50.844;5.304;2023-09-19T10:03:38;19.50;99.90
29939;DHT22;16799;50.844;5.304;2023-09-19T10:06:10;19.30;99.90
29939;DHT22;16799;50.844;5.304;2023-09-19T10:09:04;19.30;99.90
29939;DHT22;16799;50.844;5.304;2023-09-19T10:11:49;19.10;99.90
29939;DHT22;16799;50.844;5.304;2023-09-19T10:14:30;19.10;99.90
29939;DHT22;16799;50.844;5.304;2023-09-19T10:16:59;19.20;99.90
29939;DHT22;16799;50.844;5.304;2023-09-19T10:19:45;19.10;99.90
29939;DHT22;16799;50.844;5.304;2023-09-19T10:22:13;19.20;99.90
29939;DHT22;16799;50.844;5.304;2023-09-19T10:24:47;19.30;99.90
29939;DHT22;16799;50.844;5.304;2023-09-19T10:27:18;19.40;99.90
29939;DHT22;16799;50.844;5.304;2023-09-19T10:29:45;19.40;99.90
29939;DHT22;16799;50.844;5.304;2023-09-19T10:32:15;19.40;99.90
29939;DHT22;16799;50.844;5.304;2023-09-19T10:34:47;19.50;99.90
29939;DHT22;16799;50.844;5.304;2023-09-19T10:37:13;19.40;99.90
29939;DHT22;16799;50.844;5.304;2023-09-19T10:39:41;19.50;99.90
29939;DHT22;16799;50.844;5.304;2023-09-19T10:42:14;19.70;99.90
29939;DHT22;16799;50.844;5.304;2023-09-19T10:44:42;19.80;99.90
29939;DHT22;16799;50.844;5.304;2023-09-19T10:47:10;20.10;99.90
29939;DHT22;16799;50.844;5.304;2023-09-19T10:49:46;20.40;99.90
29939;DHT22;16799;50.844;5.304;2023-09-19T10:52:17;20.90;99.90
29939;DHT22;16799;50.844;5.304;2023-09-19T10:54:49;21.00;99.90
29939;DHT22;16799;50.844;5.304;2023-09-19T10:57:23;21.10;99.90
29939;DHT22;16799;50.844;5.304;2023-09-19T11:00:04;21.60;99.90
29939;DHT22;16799;50.844;5.304;2023-09-19T11:05:40;22.00;99.90
29939;DHT22;16799;50.844;5.304;2023-09-19T11:08:10;21.90;99.90
29939;DHT22;16799;50.844;5.304;2023-09-19T11:10:50;22.50;97.20
29939;DHT22;16799;50.844;5.304;2023-09-19T11:13:29;22.80;98.60
29939;DHT22;16799;50.844;5.304;2023-09-19T11:16:03;22.50;96.70
29939;DHT22;16799;50.844;5.304;2023-09-19T11:26:43;23.10;95.60
29939;DHT22;16799;50.844;5.304;2023-09-19T11:29:28;23.50;95.00
29939;DHT22;16799;50.844;5.304;2023-09-19T11:31:55;23.50;94.10
29939;DHT22;16799;50.844;5.304;2023-09-19T11:40:10;23.40;94.60
29939;DHT22;16799;50.844;5.304;2023-09-19T11:42:46;22.70;94.80
29939;DHT22;16799;50.844;5.304;2023-09-19T11:48:24;22.40;96.30
29939;DHT22;16799;50.844;5.304;2023-09-19T11:50:52;22.80;95.80
29939;DHT22;16799;50.844;5.304;2023-09-19T11:53:19;22.60;95.70
29939;DHT22;16799;50.844;5.304;2023-09-19T11:55:45;23.10;96.20
29939;DHT22;16799;50.844;5.304;2023-09-19T11:58:15;23.40;94.40
29939;DHT22;16799;50.844;5.304;2023-09-19T12:00:44;23.30;94.60
29939;DHT22;16799;50.844;5.304;2023-09-19T12:03:11;23.60;95.00
29939;DHT22;16799;50.844;5.304;2023-09-19T12:05:37;24.50;91.00
29939;DHT22;16799;50.844;5.304;2023-09-19T12:08:07;24.50;91.30
29939;DHT22;16799;50.844;5.304;2023-09-19T12:10:54;24.20;93.00
29939;DHT22;16799;50.844;5.304;2023-09-19T12:13:23;24.20;91.90
29939;DHT22;16799;50.844;5.304;2023-09-19T12:15:49;23.50;94.40
29939;DHT22;16799;50.844;5.304;2023-09-19T12:18:31;23.20;95.60
29939;DHT22;16799;50.844;5.304;2023-09-19T12:20:57;23.80;95.10
29939;DHT22;16799;50.844;5.304;2023-09-19T12:23:30;23.70;92.50
29939;DHT22;16799;50.844;5.304;2023-09-19T12:25:55;22.70;96.40
29939;DHT22;16799;50.844;5.304;2023-09-19T12:28:26;22.80;95.10
29939;DHT22;16799;50.844;5.304;2023-09-19T12:30:52;23.10;96.50
29939;DHT22;16799;50.844;5.304;2023-09-19T12:33:20;23.00;96.80
29939;DHT22;16799;50.844;5.304;2023-09-19T12:35:50;22.90;95.20
29939;DHT22;16799;50.844;5.304;2023-09-19T12:38:29;22.00;96.80
29939;DHT22;16799;50.844;5.304;2023-09-19T12:40:59;21.60;99.90
29939;DHT22;16799;50.844;5.304;2023-09-19T12:43:26;21.50;99.90
29939;DHT22;16799;50.844;5.304;2023-09-19T12:45:52;21.60;99.30
29939;DHT22;16799;50.844;5.304;2023-09-19T12:51:06;21.40;99.90
29939;DHT22;16799;50.844;5.304;2023-09-19T12:53:43;21.30;99.90
29939;DHT22;16799;50.844;5.304;2023-09-19T12:56:11;21.10;99.90
29939;DHT22;16799;50.844;5.304;2023-09-19T12:58:58;20.70;99.90
29939;DHT22;16799;50.844;5.304;2023-09-19T13:01:28;20.50;99.90
29939;DHT22;16799;50.844;5.304;2023-09-19T13:06:40;21.10;99.90
29939;DHT22;16799;50.844;5.304;2023-09-19T13:09:09;21.00;99.90
29939;DHT22;16799;50.844;5.304;2023-09-19T13:11:39;21.00;99.90
29939;DHT22;16799;50.844;5.304;2023-09-19T13:14:23;20.80;99.90
29939;DHT22;16799;50.844;5.304;2023-09-19T13:17:10;20.50;99.90
29939;DHT22;16799;50.844;5.304;2023-09-19T13:19:46;20.40;99.90
29939;DHT22;16799;50.844;5.304;2023-09-19T13:25:04;20.30;99.90
29939;DHT22;16799;50.844;5.304;2023-09-19T13:27:32;20.40;99.90
29939;DHT22;16799;50.844;5.304;2023-09-19T13:29:58;21.00;99.90
29939;DHT22;16799;50.844;5.304;2023-09-19T13:32:24;20.80;99.90
29939;DHT22;16799;50.844;5.304;2023-09-19T13:34:50;20.60;99.90
29939;DHT22;16799;50.844;5.304;2023-09-19T13:37:17;20.50;99.90
29939;DHT22;16799;50.844;5.304;2023-09-19T13:39:43;20.40;99.90
29939;DHT22;16799;50.844;5.304;2023-09-19T13:42:13;20.40;99.90
29939;DHT22;16799;50.844;5.304;2023-09-19T13:44:39;20.60;99.90
29939;DHT22;16799;50.844;5.304;2023-09-19T13:47:06;21.00;99.90
29939;DHT22;16799;50.844;5.304;2023-09-19T13:49:35;21.10;99.90
29939;DHT22;16799;50.844;5.304;2023-09-19T13:52:02;21.30;99.90
29939;DHT22;16799;50.844;5.304;2023-09-19T13:54:30;21.60;99.90
29939;DHT22;16799;50.844;5.304;2023-09-19T13:56:56;21.70;99.90
29939;DHT22;16799;50.844;5.304;2023-09-19T13:59:22;22.30;99.90
29939;DHT22;16799;50.844;5.304;2023-09-19T14:01:49;23.10;97.70
29939;DHT22;16799;50.844;5.304;2023-09-19T14:04:16;22.30;99.90
29939;DHT22;16799;50.844;5.304;2023-09-19T14:06:42;21.60;99.90
29939;DHT22;16799;50.844;5.304;2023-09-19T14:09:09;21.30;99.90
29939;DHT22;16799;50.844;5.304;2023-09-19T14:11:36;21.30;99.90
29939;DHT22;16799;50.844;5.304;2023-09-19T14:14:02;21.10;99.90
29939;DHT22;16799;50.844;5.304;2023-09-19T14:16:27;21.20;99.90
29939;DHT22;16799;50.844;5.304;2023-09-19T14:18:56;21.50;99.90
29939;DHT22;16799;50.844;5.304;2023-09-19T14:21:22;21.60;99.90
29939;DHT22;16799;50.844;5.304;2023-09-19T14:23:48;21.40;99.90
29939;DHT22;16799;50.844;5.304;2023-09-19T14:26:15;21.20;99.90
29939;DHT22;16799;50.844;5.304;2023-09-19T14:28:42;21.10;99.90
29939;DHT22;16799;50.844;5.304;2023-09-19T14:31:09;20.90;99.90
29939;DHT22;16799;50.844;5.304;2023-09-19T14:33:36;20.70;99.90
29939;DHT22;16799;50.844;5.304;2023-09-19T14:36:07;20.40;99.90
29939;DHT22;16799;50.844;5.304;2023-09-19T14:38:34;20.20;99.90
29939;DHT22;16799;50.844;5.304;2023-09-19T14:41:04;20.20;99.90
29939;DHT22;16799;50.844;5.304;2023-09-19T14:43:30;20.20;99.90
29939;DHT22;16799;50.844;5.304;2023-09-19T14:46:07;20.10;99.90
29939;DHT22;16799;50.844;5.304;2023-09-19T14:48:36;20.10;99.90
29939;DHT22;16799;50.844;5.304;2023-09-19T14:51:06;20.20;99.90
29939;DHT22;16799;50.844;5.304;2023-09-19T14:53:34;20.40;99.90
29939;DHT22;16799;50.844;5.304;2023-09-19T14:56:01;20.50;99.90
29939;DHT22;16799;50.844;5.304;2023-09-19T14:58:34;20.50;99.90
29939;DHT22;16799;50.844;5.304;2023-09-19T15:01:05;20.50;99.90
29939;DHT22;16799;50.844;5.304;2023-09-19T15:03:32;20.60;99.90
29939;DHT22;16799;50.844;5.304;2023-09-19T15:06:13;20.60;99.90
29939;DHT22;16799;50.844;5.304;2023-09-19T15:08:45;20.70;99.90
29939;DHT22;16799;50.844;5.304;2023-09-19T15:11:16;20.70;99.90
29939;DHT22;16799;50.844;5.304;2023-09-19T15:13:43;20.70;99.90
29939;DHT22;16799;50.844;5.304;2023-09-19T15:16:09;20.60;99.90
29939;DHT22;16799;50.844;5.304;2023-09-19T15:18:40;20.40;99.90
29939;DHT22;16799;50.844;5.304;2023-09-19T15:21:08;20.50;99.90
29939;DHT22;16799;50.844;5.304;2023-09-19T15:23:35;20.60;99.90
29939;DHT22;16799;50.844;5.304;2023-09-19T15:26:05;20.60;99.90
29939;DHT22;16799;50.844;5.304;2023-09-19T15:28:31;20.60;99.90
29939;DHT22;16799;50.844;5.304;2023-09-19T15:31:12;20.50;99.90
29939;DHT22;16799;50.844;5.304;2023-09-19T15:33:38;20.60;99.90
29939;DHT22;16799;50.844;5.304;2023-09-19T15:36:05;20.70;99.90
29939;DHT22;16799;50.844;5.304;2023-09-19T15:38:32;20.70;99.90
29939;DHT22;16799;50.844;5.304;2023-09-19T15:41:03;20.70;99.90
29939;DHT22;16799;50.844;5.304;2023-09-19T15:43:30;20.80;99.90
29939;DHT22;16799;50.844;5.304;2023-09-19T15:45:56;20.90;99.90
29939;DHT22;16799;50.844;5.304;2023-09-19T15:48:22;20.70;99.90
29939;DHT22;16799;50.844;5.304;2023-09-19T15:50:47;20.60;99.90
29939;DHT22;16799;50.844;5.304;2023-09-19T15:53:13;20.50;99.90
29939;DHT22;16799;50.844;5.304;2023-09-19T15:55:39;20.30;99.90
29939;DHT22;16799;50.844;5.304;2023-09-19T15:58:06;20.10;99.90
29939;DHT22;16799;50.844;5.304;2023-09-19T16:00:32;20.00;99.90
29939;DHT22;16799;50.844;5.304;2023-09-19T16:03:01;19.90;99.90
29939;DHT22;16799;50.844;5.304;2023-09-19T16:05:28;19.80;99.90
29939;DHT22;16799;50.844;5.304;2023-09-19T16:07:54;19.90;99.90
29939;DHT22;16799;50.844;5.304;2023-09-19T16:10:19;19.80;99.90
29939;DHT22;16799;50.844;5.304;2023-09-19T16:12:47;19.80;99.90
29939;DHT22;16799;50.844;5.304;2023-09-19T16:15:12;19.80;99.90
29939;DHT22;16799;50.844;5.304;2023-09-19T16:17:41;19.70;99.90
29939;DHT22;16799;50.844;5.304;2023-09-19T16:20:07;19.70;99.90
29939;DHT22;16799;50.844;5.304;2023-09-19T16:22:33;19.60;99.90
29939;DHT22;16799;50.844;5.304;2023-09-19T16:24:59;19.50;99.90
29939;DHT22;16799;50.844;5.304;2023-09-19T16:27:24;19.40;99.90